Terminal Aerodrome Forecast
Issued by NWS Charleston, SC

Home | Current Version | Previous Version | Text Only | Print | Product List | Glossary On
Versions: 1 2 3 4 5 6 7 8 9 10 11 12 13 14 15 16 17 18 19 20 21 22 23 24 25 26 27 28 29 30 31 32 33 34 35 36 37 38 39 40 41
000
FTUS42 KCHS 222328
TAFSAV
TAF
KSAV 222328Z 2300/2324 08004KT P6SM SCT050
     FM230900 04003KT P6SM SCT025 BKN050
      TEMPO 2310/2313 BKN025
     FM231500 12006KT P6SM SCT050=

USA.gov is the U.S. government's official web portal to all federal, state and local government web resources and services.